sensor_id;sensor_type;location;lat;lon;timestamp;pressure;altitude;pressure_sealevel;temperature;humidity
9672;BME280;4874;43.568;27.824;2023-06-14T00:00:14;98619.84;;;17.94;100.00
9672;BME280;4874;43.568;27.824;2023-06-14T00:02:41;98614.75;;;18.12;100.00
9672;BME280;4874;43.568;27.824;2023-06-14T00:05:08;98618.03;;;18.01;100.00
9672;BME280;4874;43.568;27.824;2023-06-14T00:07:37;98621.81;;;18.20;100.00
9672;BME280;4874;43.568;27.824;2023-06-14T00:10:05;98618.13;;;17.80;100.00
9672;BME280;4874;43.568;27.824;2023-06-14T00:12:32;98603.94;;;18.40;100.00
9672;BME280;4874;43.568;27.824;2023-06-14T00:14:59;98612.00;;;18.40;100.00
9672;BME280;4874;43.568;27.824;2023-06-14T00:17:28;98613.16;;;18.24;100.00
9672;BME280;4874;43.568;27.824;2023-06-14T00:19:58;98607.78;;;17.77;100.00
9672;BME280;4874;43.568;27.824;2023-06-14T00:22:25;98610.50;;;17.84;100.00
9672;BME280;4874;43.568;27.824;2023-06-14T00:24:55;98611.19;;;17.58;100.00
9672;BME280;4874;43.568;27.824;2023-06-14T00:27:22;98605.25;;;17.69;100.00
9672;BME280;4874;43.568;27.824;2023-06-14T00:29:48;98616.06;;;17.48;100.00
9672;BME280;4874;43.568;27.824;2023-06-14T00:32:18;98565.22;;;17.12;100.00
9672;BME280;4874;43.568;27.824;2023-06-14T00:34:44;98608.69;;;17.56;100.00
9672;BME280;4874;43.568;27.824;2023-06-14T00:37:11;98611.66;;;17.40;100.00
9672;BME280;4874;43.568;27.824;2023-06-14T00:39:38;98608.06;;;17.95;100.00
9672;BME280;4874;43.568;27.824;2023-06-14T00:42:05;98612.13;;;17.78;100.00
9672;BME280;4874;43.568;27.824;2023-06-14T00:44:32;98607.22;;;17.54;100.00
9672;BME280;4874;43.568;27.824;2023-06-14T00:46:59;98597.91;;;17.84;100.00
9672;BME280;4874;43.568;27.824;2023-06-14T00:49:25;98555.16;;;17.21;100.00
9672;BME280;4874;43.568;27.824;2023-06-14T00:51:52;98603.59;;;17.40;100.00
9672;BME280;4874;43.568;27.824;2023-06-14T00:54:19;98606.66;;;17.58;100.00
9672;BME280;4874;43.568;27.824;2023-06-14T00:56:46;98603.69;;;17.53;100.00
9672;BME280;4874;43.568;27.824;2023-06-14T00:59:13;98566.53;;;17.23;100.00
9672;BME280;4874;43.568;27.824;2023-06-14T01:01:40;98600.88;;;17.34;100.00
9672;BME280;4874;43.568;27.824;2023-06-14T01:04:07;98598.91;;;17.21;100.00
9672;BME280;4874;43.568;27.824;2023-06-14T01:12:15;98604.88;;;17.17;100.00
9672;BME280;4874;43.568;27.824;2023-06-14T01:14:44;98596.53;;;17.05;100.00
9672;BME280;4874;43.568;27.824;2023-06-14T01:17:12;98608.41;;;17.17;100.00
9672;BME280;4874;43.568;27.824;2023-06-14T01:19:43;98602.94;;;17.11;100.00
9672;BME280;4874;43.568;27.824;2023-06-14T01:22:11;98604.31;;;17.28;100.00
9672;BME280;4874;43.568;27.824;2023-06-14T01:24:38;98612.53;;;17.20;100.00
9672;BME280;4874;43.568;27.824;2023-06-14T01:27:06;98606.41;;;17.26;100.00
9672;BME280;4874;43.568;27.824;2023-06-14T01:29:34;98610.53;;;17.28;100.00
9672;BME280;4874;43.568;27.824;2023-06-14T01:32:03;98598.44;;;17.39;100.00
9672;BME280;4874;43.568;27.824;2023-06-14T01:34:30;98610.53;;;17.56;100.00
9672;BME280;4874;43.568;27.824;2023-06-14T01:36:59;98606.97;;;17.21;100.00
9672;BME280;4874;43.568;27.824;2023-06-14T01:39:28;98587.34;;;17.21;100.00
9672;BME280;4874;43.568;27.824;2023-06-14T01:41:55;98607.25;;;17.33;100.00
9672;BME280;4874;43.568;27.824;2023-06-14T01:44:22;98602.47;;;17.01;100.00
9672;BME280;4874;43.568;27.824;2023-06-14T01:46:50;98615.31;;;16.84;100.00
9672;BME280;4874;43.568;27.824;2023-06-14T01:49:17;98608.72;;;17.08;100.00
9672;BME280;4874;43.568;27.824;2023-06-14T01:51:44;98608.38;;;16.69;100.00
9672;BME280;4874;43.568;27.824;2023-06-14T01:54:11;98603.19;;;16.88;100.00
9672;BME280;4874;43.568;27.824;2023-06-14T01:56:37;98610.00;;;16.91;100.00
9672;BME280;4874;43.568;27.824;2023-06-14T01:59:04;98608.06;;;17.06;100.00
9672;BME280;4874;43.568;27.824;2023-06-14T02:01:31;98617.00;;;17.40;100.00
9672;BME280;4874;43.568;27.824;2023-06-14T02:04:00;98583.22;;;16.49;100.00
9672;BME280;4874;43.568;27.824;2023-06-14T02:06:27;98605.50;;;16.91;100.00
9672;BME280;4874;43.568;27.824;2023-06-14T02:08:54;98609.13;;;16.63;100.00
9672;BME280;4874;43.568;27.824;2023-06-14T02:11:21;98601.91;;;17.05;100.00
9672;BME280;4874;43.568;27.824;2023-06-14T02:13:48;98602.06;;;17.04;100.00
9672;BME280;4874;43.568;27.824;2023-06-14T02:16:15;98598.13;;;17.00;100.00
9672;BME280;4874;43.568;27.824;2023-06-14T02:18:43;98608.97;;;16.92;100.00
9672;BME280;4874;43.568;27.824;2023-06-14T02:21:10;98610.25;;;16.75;100.00
9672;BME280;4874;43.568;27.824;2023-06-14T02:23:37;98608.38;;;16.90;100.00
9672;BME280;4874;43.568;27.824;2023-06-14T02:26:04;98603.31;;;16.80;100.00
9672;BME280;4874;43.568;27.824;2023-06-14T02:28:30;98611.78;;;16.63;100.00
9672;BME280;4874;43.568;27.824;2023-06-14T02:30:57;98607.78;;;16.73;100.00
9672;BME280;4874;43.568;27.824;2023-06-14T02:33:24;98616.44;;;16.54;100.00
9672;BME280;4874;43.568;27.824;2023-06-14T02:35:52;98613.75;;;17.17;100.00
9672;BME280;4874;43.568;27.824;2023-06-14T02:38:19;98609.25;;;16.97;100.00
9672;BME280;4874;43.568;27.824;2023-06-14T02:40:46;98621.28;;;16.80;100.00
9672;BME280;4874;43.568;27.824;2023-06-14T02:43:13;98625.13;;;17.47;100.00
9672;BME280;4874;43.568;27.824;2023-06-14T02:45:40;98619.88;;;17.11;100.00
9672;BME280;4874;43.568;27.824;2023-06-14T02:48:07;98620.44;;;16.43;100.00
9672;BME280;4874;43.568;27.824;2023-06-14T02:50:34;98614.41;;;16.56;100.00
9672;BME280;4874;43.568;27.824;2023-06-14T02:53:00;98619.00;;;16.83;100.00
9672;BME280;4874;43.568;27.824;2023-06-14T02:55:29;98615.81;;;16.73;100.00
9672;BME280;4874;43.568;27.824;2023-06-14T02:57:55;98623.75;;;16.81;100.00
9672;BME280;4874;43.568;27.824;2023-06-14T03:00:22;98613.97;;;16.74;100.00
9672;BME280;4874;43.568;27.824;2023-06-14T03:02:49;98624.25;;;16.91;100.00
9672;BME280;4874;43.568;27.824;2023-06-14T03:05:17;98631.97;;;17.01;100.00
9672;BME280;4874;43.568;27.824;2023-06-14T03:07:49;98629.25;;;17.22;100.00
9672;BME280;4874;43.568;27.824;2023-06-14T03:10:17;98635.72;;;17.27;100.00
9672;BME280;4874;43.568;27.824;2023-06-14T03:12:44;98643.41;;;17.58;100.00
9672;BME280;4874;43.568;27.824;2023-06-14T03:15:11;98641.59;;;18.06;100.00
9672;BME280;4874;43.568;27.824;2023-06-14T03:17:39;98657.91;;;18.04;100.00
9672;BME280;4874;43.568;27.824;2023-06-14T03:20:07;98635.38;;;18.05;100.00
9672;BME280;4874;43.568;27.824;2023-06-14T03:22:35;98632.19;;;18.29;100.00
9672;BME280;4874;43.568;27.824;2023-06-14T03:25:01;98642.81;;;17.69;100.00
9672;BME280;4874;43.568;27.824;2023-06-14T03:27:31;98655.28;;;17.49;100.00
9672;BME280;4874;43.568;27.824;2023-06-14T03:29:57;98661.44;;;17.22;100.00
9672;BME280;4874;43.568;27.824;2023-06-14T03:32:24;98652.41;;;17.50;100.00
9672;BME280;4874;43.568;27.824;2023-06-14T03:34:51;98651.41;;;17.30;100.00
9672;BME280;4874;43.568;27.824;2023-06-14T03:37:19;98612.19;;;17.02;100.00
9672;BME280;4874;43.568;27.824;2023-06-14T03:39:45;98641.53;;;17.31;100.00
9672;BME280;4874;43.568;27.824;2023-06-14T03:42:13;98656.97;;;17.50;100.00
9672;BME280;4874;43.568;27.824;2023-06-14T03:44:40;98650.56;;;16.81;100.00
9672;BME280;4874;43.568;27.824;2023-06-14T03:47:07;98628.72;;;17.33;100.00
9672;BME280;4874;43.568;27.824;2023-06-14T03:49:34;98650.38;;;17.31;100.00
9672;BME280;4874;43.568;27.824;2023-06-14T03:52:01;98653.41;;;17.22;100.00
9672;BME280;4874;43.568;27.824;2023-06-14T03:54:28;98646.47;;;17.34;100.00
9672;BME280;4874;43.568;27.824;2023-06-14T03:57:16;98659.66;;;17.08;100.00
9672;BME280;4874;43.568;27.824;2023-06-14T03:59:42;98651.81;;;17.27;100.00
9672;BME280;4874;43.568;27.824;2023-06-14T04:02:09;98655.84;;;17.17;100.00
9672;BME280;4874;43.568;27.824;2023-06-14T04:04:37;98658.81;;;17.77;100.00
9672;BME280;4874;43.568;27.824;2023-06-14T04:07:04;98653.94;;;17.94;100.00
9672;BME280;4874;43.568;27.824;2023-06-14T04:09:31;98654.38;;;17.97;100.00
9672;BME280;4874;43.568;27.824;2023-06-14T04:11:58;98659.31;;;17.38;100.00
9672;BME280;4874;43.568;27.824;2023-06-14T04:14:25;98657.56;;;18.20;100.00
9672;BME280;4874;43.568;27.824;2023-06-14T04:16:51;98657.91;;;18.04;100.00
9672;BME280;4874;43.568;27.824;2023-06-14T04:19:18;98657.25;;;17.96;100.00
9672;BME280;4874;43.568;27.824;2023-06-14T04:21:45;98646.31;;;17.97;100.00
9672;BME280;4874;43.568;27.824;2023-06-14T04:24:12;98655.53;;;17.88;100.00
9672;BME280;4874;43.568;27.824;2023-06-14T04:26:44;98671.31;;;18.38;100.00
9672;BME280;4874;43.568;27.824;2023-06-14T04:29:11;98672.72;;;18.34;100.00
9672;BME280;4874;43.568;27.824;2023-06-14T04:31:43;98665.22;;;18.70;100.00
9672;BME280;4874;43.568;27.824;2023-06-14T04:34:12;98676.81;;;18.71;100.00
9672;BME280;4874;43.568;27.824;2023-06-14T04:36:48;98667.75;;;18.79;100.00
9672;BME280;4874;43.568;27.824;2023-06-14T04:39:20;98679.16;;;19.00;100.00
9672;BME280;4874;43.568;27.824;2023-06-14T04:41:50;98673.28;;;18.64;100.00
9672;BME280;4874;43.568;27.824;2023-06-14T04:44:24;98660.13;;;18.35;100.00
9672;BME280;4874;43.568;27.824;2023-06-14T04:46:57;98685.19;;;18.42;100.00
9672;BME280;4874;43.568;27.824;2023-06-14T04:49:25;98694.38;;;18.20;100.00
9672;BME280;4874;43.568;27.824;2023-06-14T04:51:56;98687.13;;;18.20;100.00
9672;BME280;4874;43.568;27.824;2023-06-14T04:54:28;98683.53;;;18.41;100.00
9672;BME280;4874;43.568;27.824;2023-06-14T04:56:58;98686.38;;;18.39;100.00
9672;BME280;4874;43.568;27.824;2023-06-14T04:59:24;98683.84;;;18.25;100.00
9672;BME280;4874;43.568;27.824;2023-06-14T05:01:51;98664.38;;;18.16;100.00
9672;BME280;4874;43.568;27.824;2023-06-14T05:04:19;98688.13;;;18.47;100.00
9672;BME280;4874;43.568;27.824;2023-06-14T05:06:47;98702.41;;;18.54;100.00
9672;BME280;4874;43.568;27.824;2023-06-14T05:09:15;98643.91;;;18.56;100.00
9672;BME280;4874;43.568;27.824;2023-06-14T05:11:43;98701.13;;;19.17;100.00
9672;BME280;4874;43.568;27.824;2023-06-14T05:14:11;98702.41;;;19.40;100.00
9672;BME280;4874;43.568;27.824;2023-06-14T05:16:38;98700.53;;;19.80;100.00
9672;BME280;4874;43.568;27.824;2023-06-14T05:19:06;98705.53;;;19.50;100.00
9672;BME280;4874;43.568;27.824;2023-06-14T05:21:33;98722.44;;;19.12;100.00
9672;BME280;4874;43.568;27.824;2023-06-14T05:24:06;98706.50;;;19.17;100.00
9672;BME280;4874;43.568;27.824;2023-06-14T05:26:32;98711.94;;;19.43;100.00
9672;BME280;4874;43.568;27.824;2023-06-14T05:29:00;98715.84;;;19.40;100.00
9672;BME280;4874;43.568;27.824;2023-06-14T05:31:27;98677.72;;;19.11;100.00
9672;BME280;4874;43.568;27.824;2023-06-14T05:33:54;98714.22;;;19.33;100.00
9672;BME280;4874;43.568;27.824;2023-06-14T05:36:21;98665.28;;;19.10;100.00
9672;BME280;4874;43.568;27.824;2023-06-14T05:38:48;98695.97;;;19.74;100.00
9672;BME280;4874;43.568;27.824;2023-06-14T05:41:15;98721.41;;;20.04;100.00
9672;BME280;4874;43.568;27.824;2023-06-14T05:43:42;98701.72;;;20.10;100.00
9672;BME280;4874;43.568;27.824;2023-06-14T05:46:15;98727.41;;;20.19;100.00
9672;BME280;4874;43.568;27.824;2023-06-14T05:48:44;98720.16;;;20.26;100.00
9672;BME280;4874;43.568;27.824;2023-06-14T05:51:17;98734.09;;;20.74;100.00
9672;BME280;4874;43.568;27.824;2023-06-14T05:53:48;98733.63;;;20.83;100.00
9672;BME280;4874;43.568;27.824;2023-06-14T05:56:30;98719.47;;;21.01;100.00
9672;BME280;4874;43.568;27.824;2023-06-14T05:58:57;98731.28;;;21.62;100.00
9672;BME280;4874;43.568;27.824;2023-06-14T06:01:24;98738.50;;;21.13;100.00
9672;BME280;4874;43.568;27.824;2023-06-14T06:03:51;98732.66;;;20.71;100.00
9672;BME280;4874;43.568;27.824;2023-06-14T06:06:18;98718.53;;;21.14;100.00
9672;BME280;4874;43.568;27.824;2023-06-14T06:08:45;98728.31;;;21.39;100.00
9672;BME280;4874;43.568;27.824;2023-06-14T06:11:12;98735.09;;;21.24;100.00
9672;BME280;4874;43.568;27.824;2023-06-14T06:13:39;98731.69;;;21.35;100.00
9672;BME280;4874;43.568;27.824;2023-06-14T06:16:07;98690.81;;;21.56;100.00
9672;BME280;4874;43.568;27.824;2023-06-14T06:18:34;98720.13;;;22.01;100.00
9672;BME280;4874;43.568;27.824;2023-06-14T06:21:01;98734.66;;;21.82;100.00
9672;BME280;4874;43.568;27.824;2023-06-14T06:23:29;98737.13;;;21.84;100.00
9672;BME280;4874;43.568;27.824;2023-06-14T06:25:56;98729.41;;;22.30;100.00
9672;BME280;4874;43.568;27.824;2023-06-14T06:28:23;98727.06;;;22.34;100.00
9672;BME280;4874;43.568;27.824;2023-06-14T06:31:19;98737.00;;;22.40;100.00
9672;BME280;4874;43.568;27.824;2023-06-14T06:33:46;98729.28;;;22.43;100.00
9672;BME280;4874;43.568;27.824;2023-06-14T06:36:13;98738.94;;;22.14;100.00
9672;BME280;4874;43.568;27.824;2023-06-14T06:38:40;98732.53;;;21.60;100.00
9672;BME280;4874;43.568;27.824;2023-06-14T06:41:07;98728.06;;;21.47;100.00
9672;BME280;4874;43.568;27.824;2023-06-14T06:43:34;98732.00;;;22.00;100.00
9672;BME280;4874;43.568;27.824;2023-06-14T06:46:00;98737.31;;;22.50;100.00
9672;BME280;4874;43.568;27.824;2023-06-14T06:48:27;98731.91;;;22.50;100.00
9672;BME280;4874;43.568;27.824;2023-06-14T06:50:55;98735.13;;;22.40;100.00
9672;BME280;4874;43.568;27.824;2023-06-14T06:53:21;98729.28;;;22.61;100.00
9672;BME280;4874;43.568;27.824;2023-06-14T06:56:00;98732.56;;;23.11;100.00
9672;BME280;4874;43.568;27.824;2023-06-14T06:58:27;98738.25;;;23.21;100.00
9672;BME280;4874;43.568;27.824;2023-06-14T07:00:54;98732.16;;;23.55;100.00
9672;BME280;4874;43.568;27.824;2023-06-14T07:03:20;98733.56;;;23.16;100.00
9672;BME280;4874;43.568;27.824;2023-06-14T07:05:47;98737.53;;;22.66;100.00
9672;BME280;4874;43.568;27.824;2023-06-14T07:08:14;98743.41;;;22.81;100.00
9672;BME280;4874;43.568;27.824;2023-06-14T07:10:41;98742.97;;;22.66;100.00
9672;BME280;4874;43.568;27.824;2023-06-14T07:13:07;98725.59;;;22.20;100.00
9672;BME280;4874;43.568;27.824;2023-06-14T07:15:35;98733.34;;;22.52;100.00
9672;BME280;4874;43.568;27.824;2023-06-14T07:18:02;98711.97;;;22.26;100.00
9672;BME280;4874;43.568;27.824;2023-06-14T07:20:29;98715.88;;;22.84;100.00
9672;BME280;4874;43.568;27.824;2023-06-14T07:22:57;98740.94;;;23.09;100.00
9672;BME280;4874;43.568;27.824;2023-06-14T07:25:24;98742.16;;;23.25;100.00
9672;BME280;4874;43.568;27.824;2023-06-14T07:27:50;98746.63;;;23.19;100.00
9672;BME280;4874;43.568;27.824;2023-06-14T07:30:17;98749.22;;;23.44;100.00
9672;BME280;4874;43.568;27.824;2023-06-14T07:32:44;98752.19;;;23.24;100.00
9672;BME280;4874;43.568;27.824;2023-06-14T07:35:11;98750.16;;;23.20;100.00
9672;BME280;4874;43.568;27.824;2023-06-14T07:37:38;98753.03;;;22.77;100.00
9672;BME280;4874;43.568;27.824;2023-06-14T07:40:05;98752.41;;;22.39;100.00
9672;BME280;4874;43.568;27.824;2023-06-14T07:42:34;98757.09;;;22.86;100.00
9672;BME280;4874;43.568;27.824;2023-06-14T07:45:03;98743.25;;;22.76;100.00
9672;BME280;4874;43.568;27.824;2023-06-14T07:47:30;98743.53;;;23.34;100.00
9672;BME280;4874;43.568;27.824;2023-06-14T07:49:57;98737.25;;;23.63;100.00
9672;BME280;4874;43.568;27.824;2023-06-14T07:52:24;98749.72;;;22.93;100.00
9672;BME280;4874;43.568;27.824;2023-06-14T07:54:51;98750.38;;;22.89;100.00
9672;BME280;4874;43.568;27.824;2023-06-14T07:57:18;98752.25;;;22.88;100.00
9672;BME280;4874;43.568;27.824;2023-06-14T07:59:46;98751.22;;;22.71;100.00
9672;BME280;4874;43.568;27.824;2023-06-14T08:02:13;98752.44;;;22.57;100.00
9672;BME280;4874;43.568;27.824;2023-06-14T08:04:40;98749.13;;;22.91;100.00
9672;BME280;4874;43.568;27.824;2023-06-14T08:07:08;98755.00;;;23.48;100.00
9672;BME280;4874;43.568;27.824;2023-06-14T08:09:35;98757.97;;;23.69;100.00
9672;BME280;4874;43.568;27.824;2023-06-14T08:12:05;98758.34;;;23.84;100.00
9672;BME280;4874;43.568;27.824;2023-06-14T08:14:36;98758.72;;;23.88;100.00
9672;BME280;4874;43.568;27.824;2023-06-14T08:17:03;98756.84;;;23.77;100.00
9672;BME280;4874;43.568;27.824;2023-06-14T08:19:30;98754.59;;;23.85;100.00
9672;BME280;4874;43.568;27.824;2023-06-14T08:21:57;98765.56;;;23.79;100.00
9672;BME280;4874;43.568;27.824;2023-06-14T08:24:24;98771.31;;;23.71;100.00
9672;BME280;4874;43.568;27.824;2023-06-14T08:26:51;98766.34;;;23.56;100.00
9672;BME280;4874;43.568;27.824;2023-06-14T08:29:18;98771.22;;;23.89;100.00
9672;BME280;4874;43.568;27.824;2023-06-14T08:31:45;98760.53;;;24.05;100.00
9672;BME280;4874;43.568;27.824;2023-06-14T08:34:12;98762.81;;;23.67;100.00
9672;BME280;4874;43.568;27.824;2023-06-14T08:36:38;98768.78;;;23.46;100.00
9672;BME280;4874;43.568;27.824;2023-06-14T08:39:06;98759.25;;;23.55;100.00
9672;BME280;4874;43.568;27.824;2023-06-14T08:41:33;98761.63;;;23.63;100.00
9672;BME280;4874;43.568;27.824;2023-06-14T08:44:00;98763.75;;;23.73;100.00
9672;BME280;4874;43.568;27.824;2023-06-14T08:46:27;98765.72;;;23.43;100.00
9672;BME280;4874;43.568;27.824;2023-06-14T08:48:55;98770.41;;;23.17;100.00
9672;BME280;4874;43.568;27.824;2023-06-14T08:51:25;98764.59;;;23.73;100.00
9672;BME280;4874;43.568;27.824;2023-06-14T08:53:55;98737.84;;;23.77;100.00
9672;BME280;4874;43.568;27.824;2023-06-14T08:56:26;98757.81;;;24.05;100.00
9672;BME280;4874;43.568;27.824;2023-06-14T08:58:54;98759.91;;;24.61;100.00
9672;BME280;4874;43.568;27.824;2023-06-14T09:01:23;98753.41;;;24.62;100.00
9672;BME280;4874;43.568;27.824;2023-06-14T09:03:51;98761.34;;;24.52;100.00
9672;BME280;4874;43.568;27.824;2023-06-14T09:06:18;98753.19;;;23.94;100.00
9672;BME280;4874;43.568;27.824;2023-06-14T09:08:46;98722.91;;;24.09;100.00
9672;BME280;4874;43.568;27.824;2023-06-14T09:11:17;98757.06;;;24.79;100.00
9672;BME280;4874;43.568;27.824;2023-06-14T09:13:48;98755.63;;;24.88;100.00
9672;BME280;4874;43.568;27.824;2023-06-14T09:16:16;98739.50;;;24.70;100.00
9672;BME280;4874;43.568;27.824;2023-06-14T09:18:45;98749.16;;;24.78;100.00
9672;BME280;4874;43.568;27.824;2023-06-14T09:21:15;98748.38;;;24.54;100.00
9672;BME280;4874;43.568;27.824;2023-06-14T09:23:47;98743.06;;;24.36;100.00
9672;BME280;4874;43.568;27.824;2023-06-14T09:26:16;98738.78;;;24.75;100.00
9672;BME280;4874;43.568;27.824;2023-06-14T09:28:47;98738.75;;;24.86;100.00
9672;BME280;4874;43.568;27.824;2023-06-14T09:31:16;98717.53;;;24.60;100.00
9672;BME280;4874;43.568;27.824;2023-06-14T09:33:47;98730.09;;;25.45;100.00
9672;BME280;4874;43.568;27.824;2023-06-14T09:36:16;98734.94;;;24.87;100.00
9672;BME280;4874;43.568;27.824;2023-06-14T09:38:54;98735.97;;;24.47;100.00
9672;BME280;4874;43.568;27.824;2023-06-14T09:41:41;98732.66;;;25.07;100.00
9672;BME280;4874;43.568;27.824;2023-06-14T09:44:10;98729.03;;;25.18;100.00
9672;BME280;4874;43.568;27.824;2023-06-14T09:46:45;98736.53;;;24.60;100.00
9672;BME280;4874;43.568;27.824;2023-06-14T09:49:12;98736.91;;;25.03;100.00
9672;BME280;4874;43.568;27.824;2023-06-14T09:51:43;98735.47;;;25.12;100.00
9672;BME280;4874;43.568;27.824;2023-06-14T09:54:15;98729.56;;;25.60;100.00
9672;BME280;4874;43.568;27.824;2023-06-14T09:56:47;98732.13;;;26.00;100.00
9672;BME280;4874;43.568;27.824;2023-06-14T09:59:16;98729.72;;;25.53;100.00
9672;BME280;4874;43.568;27.824;2023-06-14T10:01:47;98739.56;;;25.15;100.00
9672;BME280;4874;43.568;27.824;2023-06-14T10:04:15;98731.16;;;25.16;100.00
9672;BME280;4874;43.568;27.824;2023-06-14T10:06:47;98733.41;;;25.47;100.00
9672;BME280;4874;43.568;27.824;2023-06-14T10:09:14;98719.47;;;26.05;100.00
9672;BME280;4874;43.568;27.824;2023-06-14T10:11:41;98729.47;;;25.38;100.00
9672;BME280;4874;43.568;27.824;2023-06-14T10:14:12;98735.25;;;24.63;100.00
9672;BME280;4874;43.568;27.824;2023-06-14T10:17:01;98746.91;;;25.14;100.00
9672;BME280;4874;43.568;27.824;2023-06-14T10:19:37;98734.09;;;25.54;100.00
9672;BME280;4874;43.568;27.824;2023-06-14T10:22:14;98735.09;;;26.15;100.00
9672;BME280;4874;43.568;27.824;2023-06-14T10:24:44;98733.59;;;25.91;100.00
9672;BME280;4874;43.568;27.824;2023-06-14T10:27:15;98727.94;;;25.59;100.00
9672;BME280;4874;43.568;27.824;2023-06-14T10:32:20;98734.66;;;25.40;100.00
9672;BME280;4874;43.568;27.824;2023-06-14T10:35:00;98728.22;;;25.63;100.00
9672;BME280;4874;43.568;27.824;2023-06-14T10:37:27;98733.91;;;24.88;100.00
9672;BME280;4874;43.568;27.824;2023-06-14T10:39:54;98711.97;;;25.06;100.00
9672;BME280;4874;43.568;27.824;2023-06-14T10:42:21;98697.44;;;25.12;100.00
9672;BME280;4874;43.568;27.824;2023-06-14T10:44:49;98731.88;;;25.85;100.00
9672;BME280;4874;43.568;27.824;2023-06-14T10:47:30;98732.94;;;25.84;100.00
9672;BME280;4874;43.568;27.824;2023-06-14T10:50:09;98725.84;;;25.99;100.00
9672;BME280;4874;43.568;27.824;2023-06-14T10:52:41;98737.94;;;26.63;100.00
9672;BME280;4874;43.568;27.824;2023-06-14T10:57:52;98728.34;;;26.17;100.00
9672;BME280;4874;43.568;27.824;2023-06-14T11:00:27;98736.66;;;26.27;100.00
9672;BME280;4874;43.568;27.824;2023-06-14T11:03:31;98740.81;;;26.95;100.00
9672;BME280;4874;43.568;27.824;2023-06-14T11:06:13;98722.78;;;27.15;100.00
9672;BME280;4874;43.568;27.824;2023-06-14T11:11:32;98728.00;;;27.17;100.00
9672;BME280;4874;43.568;27.824;2023-06-14T11:14:02;98731.00;;;26.94;100.00
9672;BME280;4874;43.568;27.824;2023-06-14T11:16:29;98730.75;;;27.43;100.00
9672;BME280;4874;43.568;27.824;2023-06-14T11:18:56;98738.72;;;27.50;100.00
9672;BME280;4874;43.568;27.824;2023-06-14T11:21:24;98712.56;;;27.01;100.00
9672;BME280;4874;43.568;27.824;2023-06-14T11:23:52;98729.06;;;27.37;100.00
9672;BME280;4874;43.568;27.824;2023-06-14T11:26:30;98728.72;;;27.60;100.00
9672;BME280;4874;43.568;27.824;2023-06-14T11:28:58;98738.59;;;26.92;100.00
9672;BME280;4874;43.568;27.824;2023-06-14T11:31:26;98725.16;;;27.07;100.00
9672;BME280;4874;43.568;27.824;2023-06-14T11:33:55;98721.16;;;27.41;100.00
9672;BME280;4874;43.568;27.824;2023-06-14T11:36:26;98715.50;;;27.21;100.00
9672;BME280;4874;43.568;27.824;2023-06-14T11:39:04;98744.22;;;27.07;100.00
9672;BME280;4874;43.568;27.824;2023-06-14T11:41:36;98729.72;;;26.20;100.00
9672;BME280;4874;43.568;27.824;2023-06-14T11:44:03;98725.91;;;26.21;100.00
9672;BME280;4874;43.568;27.824;2023-06-14T11:46:30;98731.28;;;25.99;100.00
9672;BME280;4874;43.568;27.824;2023-06-14T11:48:57;98731.69;;;26.24;100.00
9672;BME280;4874;43.568;27.824;2023-06-14T11:51:24;98726.84;;;26.10;100.00
9672;BME280;4874;43.568;27.824;2023-06-14T11:53:51;98726.53;;;25.90;100.00
9672;BME280;4874;43.568;27.824;2023-06-14T11:56:19;98724.53;;;26.02;100.00
9672;BME280;4874;43.568;27.824;2023-06-14T11:58:46;98719.03;;;26.35;100.00
9672;BME280;4874;43.568;27.824;2023-06-14T12:01:19;98709.03;;;26.19;100.00
9672;BME280;4874;43.568;27.824;2023-06-14T12:03:49;98717.34;;;26.50;100.00
9672;BME280;4874;43.568;27.824;2023-06-14T12:06:26;98710.94;;;26.78;100.00
9672;BME280;4874;43.568;27.824;2023-06-14T12:08:57;98717.78;;;26.81;100.00
9672;BME280;4874;43.568;27.824;2023-06-14T12:11:34;98713.75;;;26.88;100.00
9672;BME280;4874;43.568;27.824;2023-06-14T12:14:03;98713.75;;;26.88;100.00
9672;BME280;4874;43.568;27.824;2023-06-14T12:16:32;98704.06;;;26.54;100.00
9672;BME280;4874;43.568;27.824;2023-06-14T12:19:16;98706.06;;;26.04;100.00
9672;BME280;4874;43.568;27.824;2023-06-14T12:21:46;98710.47;;;26.05;100.00
9672;BME280;4874;43.568;27.824;2023-06-14T12:24:15;98712.66;;;26.08;100.00
9672;BME280;4874;43.568;27.824;2023-06-14T12:26:42;98708.22;;;26.40;100.00
9672;BME280;4874;43.568;27.824;2023-06-14T12:29:09;98702.84;;;27.10;100.00
9672;BME280;4874;43.568;27.824;2023-06-14T12:31:37;98710.84;;;27.43;100.00
9672;BME280;4874;43.568;27.824;2023-06-14T12:34:04;98694.50;;;27.79;100.00
9672;BME280;4874;43.568;27.824;2023-06-14T12:36:31;98696.00;;;27.60;98.65
9672;BME280;4874;43.568;27.824;2023-06-14T12:38:58;98693.66;;;27.42;100.00
9672;BME280;4874;43.568;27.824;2023-06-14T12:41:26;98688.50;;;26.93;100.00
9672;BME280;4874;43.568;27.824;2023-06-14T12:43:53;98684.84;;;26.65;100.00
9672;BME280;4874;43.568;27.824;2023-06-14T12:46:20;98684.88;;;27.14;100.00
9672;BME280;4874;43.568;27.824;2023-06-14T12:48:47;98690.53;;;26.81;100.00
9672;BME280;4874;43.568;27.824;2023-06-14T12:51:14;98688.91;;;26.20;100.00
9672;BME280;4874;43.568;27.824;2023-06-14T12:53:40;98677.78;;;26.43;100.00
9672;BME280;4874;43.568;27.824;2023-06-14T12:56:07;98685.19;;;26.47;100.00
9672;BME280;4874;43.568;27.824;2023-06-14T12:58:34;98667.50;;;26.28;100.00
9672;BME280;4874;43.568;27.824;2023-06-14T13:01:01;98674.09;;;26.54;100.00
9672;BME280;4874;43.568;27.824;2023-06-14T13:03:28;98658.28;;;26.73;100.00
9672;BME280;4874;43.568;27.824;2023-06-14T13:05:55;98670.22;;;26.93;100.00
9672;BME280;4874;43.568;27.824;2023-06-14T13:08:22;98676.09;;;26.80;100.00
9672;BME280;4874;43.568;27.824;2023-06-14T13:10:51;98670.41;;;27.08;100.00
9672;BME280;4874;43.568;27.824;2023-06-14T13:13:18;98669.28;;;26.83;99.12
9672;BME280;4874;43.568;27.824;2023-06-14T13:15:44;98666.56;;;26.83;99.74
9672;BME280;4874;43.568;27.824;2023-06-14T13:18:12;98665.72;;;26.77;98.66
9672;BME280;4874;43.568;27.824;2023-06-14T13:20:39;98674.00;;;26.87;100.00